sensor_id;sensor_type;location;lat;lon;timestamp;pressure;altitude;pressure_sealevel;temperature;humidity
38163;BME280;23977;53.078;18.248;2023-03-04T00:01:40;100984.34;;;2.30;100.00
38163;BME280;23977;53.078;18.248;2023-03-04T00:04:06;100950.50;;;2.12;100.00
38163;BME280;23977;53.078;18.248;2023-03-04T00:06:32;100943.97;;;2.05;100.00
38163;BME280;23977;53.078;18.248;2023-03-04T00:08:57;100972.59;;;2.22;100.00
38163;BME280;23977;53.078;18.248;2023-03-04T00:11:23;100936.44;;;2.13;100.00
38163;BME280;23977;53.078;18.248;2023-03-04T00:13:49;100943.31;;;2.29;100.00
38163;BME280;23977;53.078;18.248;2023-03-04T00:16:15;100914.34;;;2.03;100.00
38163;BME280;23977;53.078;18.248;2023-03-04T00:18:41;100896.88;;;1.89;100.00
38163;BME280;23977;53.078;18.248;2023-03-04T00:21:07;100865.97;;;1.67;100.00
38163;BME280;23977;53.078;18.248;2023-03-04T00:23:32;100928.56;;;2.13;100.00
38163;BME280;23977;53.078;18.248;2023-03-04T00:25:58;100923.19;;;2.02;100.00
38163;BME280;23977;53.078;18.248;2023-03-04T00:28:24;100905.97;;;2.11;100.00
38163;BME280;23977;53.078;18.248;2023-03-04T00:30:50;100856.34;;;1.80;100.00
38163;BME280;23977;53.078;18.248;2023-03-04T00:33:15;100865.16;;;1.79;100.00
38163;BME280;23977;53.078;18.248;2023-03-04T00:35:41;100882.69;;;1.79;100.00
38163;BME280;23977;53.078;18.248;2023-03-04T00:38:07;100865.69;;;1.72;100.00
38163;BME280;23977;53.078;18.248;2023-03-04T00:40:32;100871.22;;;1.67;100.00
38163;BME280;23977;53.078;18.248;2023-03-04T00:42:58;100855.34;;;1.56;100.00
38163;BME280;23977;53.078;18.248;2023-03-04T00:45:24;100865.69;;;1.72;100.00
38163;BME280;23977;53.078;18.248;2023-03-04T00:47:49;100864.28;;;1.66;100.00
38163;BME280;23977;53.078;18.248;2023-03-04T00:50:17;100859.03;;;1.66;100.00
38163;BME280;23977;53.078;18.248;2023-03-04T00:52:43;100788.19;;;1.26;100.00
38163;BME280;23977;53.078;18.248;2023-03-04T00:55:08;100807.09;;;1.31;100.00
38163;BME280;23977;53.078;18.248;2023-03-04T00:57:34;100814.03;;;1.32;100.00
38163;BME280;23977;53.078;18.248;2023-03-04T01:00:03;100872.88;;;1.68;100.00
38163;BME280;23977;53.078;18.248;2023-03-04T01:02:29;100842.75;;;1.61;100.00
38163;BME280;23977;53.078;18.248;2023-03-04T01:04:55;100885.31;;;1.79;100.00
38163;BME280;23977;53.078;18.248;2023-03-04T01:07:20;100874.97;;;2.03;100.00
38163;BME280;23977;53.078;18.248;2023-03-04T01:09:46;100868.19;;;2.13;100.00
38163;BME280;23977;53.078;18.248;2023-03-04T01:12:12;100848.66;;;2.17;100.00
38163;BME280;23977;53.078;18.248;2023-03-04T01:14:37;100868.06;;;2.15;100.00
38163;BME280;23977;53.078;18.248;2023-03-04T01:17:03;100841.50;;;2.07;100.00
38163;BME280;23977;53.078;18.248;2023-03-04T01:19:29;100860.72;;;2.33;100.00
38163;BME280;23977;53.078;18.248;2023-03-04T01:21:54;100867.78;;;2.45;100.00
38163;BME280;23977;53.078;18.248;2023-03-04T01:24:21;100857.28;;;2.45;100.00
38163;BME280;23977;53.078;18.248;2023-03-04T01:26:47;100794.03;;;2.10;100.00
38163;BME280;23977;53.078;18.248;2023-03-04T01:29:13;100846.78;;;2.45;100.00
38163;BME280;23977;53.078;18.248;2023-03-04T01:31:38;100850.03;;;2.62;100.00
38163;BME280;23977;53.078;18.248;2023-03-04T01:34:04;100860.84;;;2.70;100.00
38163;BME280;23977;53.078;18.248;2023-03-04T01:36:30;100791.09;;;2.27;100.00
38163;BME280;23977;53.078;18.248;2023-03-04T01:38:55;100834.59;;;2.57;100.00
38163;BME280;23977;53.078;18.248;2023-03-04T01:41:24;100805.59;;;2.46;100.00
38163;BME280;23977;53.078;18.248;2023-03-04T01:43:50;100843.91;;;2.74;100.00
38163;BME280;23977;53.078;18.248;2023-03-04T01:46:16;100790.97;;;2.54;100.00
38163;BME280;23977;53.078;18.248;2023-03-04T01:48:43;100830.97;;;2.84;100.00
38163;BME280;23977;53.078;18.248;2023-03-04T01:51:14;100821.31;;;2.71;100.00
38163;BME280;23977;53.078;18.248;2023-03-04T01:53:41;100814.19;;;2.73;100.00
38163;BME280;23977;53.078;18.248;2023-03-04T01:56:15;100840.91;;;2.91;100.00
38163;BME280;23977;53.078;18.248;2023-03-04T01:58:43;100846.94;;;2.93;100.00
38163;BME280;23977;53.078;18.248;2023-03-04T02:01:12;100844.09;;;2.96;100.00
38163;BME280;23977;53.078;18.248;2023-03-04T02:03:39;100797.38;;;2.63;100.00
38163;BME280;23977;53.078;18.248;2023-03-04T02:06:04;100817.72;;;2.85;100.00
38163;BME280;23977;53.078;18.248;2023-03-04T02:08:30;100822.97;;;2.85;100.00
38163;BME280;23977;53.078;18.248;2023-03-04T02:10:56;100789.78;;;2.71;100.00
38163;BME280;23977;53.078;18.248;2023-03-04T02:13:22;100808.25;;;2.83;100.00
38163;BME280;23977;53.078;18.248;2023-03-04T02:15:48;100825.22;;;3.03;100.00
38163;BME280;23977;53.078;18.248;2023-03-04T02:18:20;100726.50;;;2.37;100.00
38163;BME280;23977;53.078;18.248;2023-03-04T02:20:54;100822.38;;;3.06;100.00
38163;BME280;23977;53.078;18.248;2023-03-04T02:26:35;100814.28;;;3.09;100.00
38163;BME280;23977;53.078;18.248;2023-03-04T02:29:02;100820.59;;;3.06;100.00
38163;BME280;23977;53.078;18.248;2023-03-04T02:31:44;100816.84;;;2.97;100.00
38163;BME280;23977;53.078;18.248;2023-03-04T02:34:13;100808.88;;;2.86;100.00
38163;BME280;23977;53.078;18.248;2023-03-04T02:36:39;100813.06;;;3.02;100.00
38163;BME280;23977;53.078;18.248;2023-03-04T02:39:11;100821.44;;;3.07;100.00
38163;BME280;23977;53.078;18.248;2023-03-04T02:41:37;100812.16;;;3.14;100.00
38163;BME280;23977;53.078;18.248;2023-03-04T02:44:14;100807.28;;;3.21;100.00
38163;BME280;23977;53.078;18.248;2023-03-04T02:46:41;100750.31;;;2.84;100.00
38163;BME280;23977;53.078;18.248;2023-03-04T02:49:07;100783.47;;;3.11;100.00
38163;BME280;23977;53.078;18.248;2023-03-04T02:51:33;100737.50;;;2.80;100.00
38163;BME280;23977;53.078;18.248;2023-03-04T02:53:58;100797.03;;;3.05;100.00
38163;BME280;23977;53.078;18.248;2023-03-04T02:56:24;100724.22;;;2.70;100.00
38163;BME280;23977;53.078;18.248;2023-03-04T02:58:50;100691.66;;;2.59;100.00
38163;BME280;23977;53.078;18.248;2023-03-04T03:01:15;100757.56;;;2.93;100.00
38163;BME280;23977;53.078;18.248;2023-03-04T03:03:41;100794.25;;;3.19;100.00
38163;BME280;23977;53.078;18.248;2023-03-04T03:06:07;100750.66;;;2.80;100.00
38163;BME280;23977;53.078;18.248;2023-03-04T03:08:33;100789.22;;;3.16;100.00
38163;BME280;23977;53.078;18.248;2023-03-04T03:10:58;100762.59;;;2.96;100.00
38163;BME280;23977;53.078;18.248;2023-03-04T03:13:24;100745.75;;;2.99;100.00
38163;BME280;23977;53.078;18.248;2023-03-04T03:15:49;100758.13;;;3.10;100.00
38163;BME280;23977;53.078;18.248;2023-03-04T03:18:15;100719.75;;;2.83;100.00
38163;BME280;23977;53.078;18.248;2023-03-04T03:20:41;100776.34;;;3.24;100.00
38163;BME280;23977;53.078;18.248;2023-03-04T03:23:07;100776.34;;;3.24;100.00
38163;BME280;23977;53.078;18.248;2023-03-04T03:25:33;100734.28;;;3.00;100.00
38163;BME280;23977;53.078;18.248;2023-03-04T03:27:58;100736.06;;;3.00;100.00
38163;BME280;23977;53.078;18.248;2023-03-04T03:30:24;100728.16;;;2.88;100.00
38163;BME280;23977;53.078;18.248;2023-03-04T03:32:50;100739.19;;;3.05;100.00
38163;BME280;23977;53.078;18.248;2023-03-04T03:35:15;100759.78;;;3.11;100.00
38163;BME280;23977;53.078;18.248;2023-03-04T03:37:41;100721.31;;;3.10;100.00
38163;BME280;23977;53.078;18.248;2023-03-04T03:40:07;100766.56;;;3.26;100.00
38163;BME280;23977;53.078;18.248;2023-03-04T03:42:33;100740.72;;;3.20;100.00
38163;BME280;23977;53.078;18.248;2023-03-04T03:44:59;100739.63;;;3.11;100.00
38163;BME280;23977;53.078;18.248;2023-03-04T03:47:25;100731.38;;;3.16;100.00
38163;BME280;23977;53.078;18.248;2023-03-04T03:49:50;100715.50;;;2.93;100.00
38163;BME280;23977;53.078;18.248;2023-03-04T03:52:16;100756.66;;;3.30;100.00
38163;BME280;23977;53.078;18.248;2023-03-04T03:54:42;100741.44;;;3.22;100.00
38163;BME280;23977;53.078;18.248;2023-03-04T03:57:08;100760.34;;;3.27;100.00
38163;BME280;23977;53.078;18.248;2023-03-04T03:59:33;100761.47;;;3.36;100.00
38163;BME280;23977;53.078;18.248;2023-03-04T04:01:59;100751.97;;;3.22;100.00
38163;BME280;23977;53.078;18.248;2023-03-04T04:04:25;100756.78;;;3.28;100.00
38163;BME280;23977;53.078;18.248;2023-03-04T04:06:50;100764.44;;;3.31;100.00
38163;BME280;23977;53.078;18.248;2023-03-04T04:09:16;100717.38;;;2.91;100.00
38163;BME280;23977;53.078;18.248;2023-03-04T04:11:42;100733.72;;;3.08;100.00
38163;BME280;23977;53.078;18.248;2023-03-04T04:14:10;100773.41;;;3.29;100.00
38163;BME280;23977;53.078;18.248;2023-03-04T04:16:37;100717.16;;;2.94;100.00
38163;BME280;23977;53.078;18.248;2023-03-04T04:19:02;100769.19;;;3.26;100.00
38163;BME280;23977;53.078;18.248;2023-03-04T04:21:28;100750.13;;;3.11;100.00
38163;BME280;23977;53.078;18.248;2023-03-04T04:23:53;100763.97;;;3.38;100.00
38163;BME280;23977;53.078;18.248;2023-03-04T04:26:19;100736.00;;;3.12;100.00
38163;BME280;23977;53.078;18.248;2023-03-04T04:28:45;100704.78;;;2.96;100.00
38163;BME280;23977;53.078;18.248;2023-03-04T04:31:11;100755.38;;;3.36;100.00
38163;BME280;23977;53.078;18.248;2023-03-04T04:33:36;100749.72;;;3.29;100.00
38163;BME280;23977;53.078;18.248;2023-03-04T04:36:02;100695.31;;;2.94;100.00
38163;BME280;23977;53.078;18.248;2023-03-04T04:38:29;100756.00;;;3.15;100.00
38163;BME280;23977;53.078;18.248;2023-03-04T04:40:58;100725.81;;;3.08;100.00
38163;BME280;23977;53.078;18.248;2023-03-04T04:43:24;100717.28;;;3.17;100.00
38163;BME280;23977;53.078;18.248;2023-03-04T04:45:51;100724.22;;;3.18;100.00
38163;BME280;23977;53.078;18.248;2023-03-04T04:48:17;100733.81;;;3.30;100.00
38163;BME280;23977;53.078;18.248;2023-03-04T04:50:43;100727.50;;;3.33;100.00
38163;BME280;23977;53.078;18.248;2023-03-04T04:53:11;100721.00;;;3.26;100.00
38163;BME280;23977;53.078;18.248;2023-03-04T04:55:37;100639.66;;;2.76;100.00
38163;BME280;23977;53.078;18.248;2023-03-04T04:58:05;100701.94;;;3.11;100.00
38163;BME280;23977;53.078;18.248;2023-03-04T05:00:31;100692.56;;;2.95;100.00
38163;BME280;23977;53.078;18.248;2023-03-04T05:02:56;100665.16;;;2.87;100.00
38163;BME280;23977;53.078;18.248;2023-03-04T05:05:22;100694.78;;;3.13;100.00
38163;BME280;23977;53.078;18.248;2023-03-04T05:07:47;100719.97;;;3.28;100.00
38163;BME280;23977;53.078;18.248;2023-03-04T05:10:13;100651.28;;;2.85;100.00
38163;BME280;23977;53.078;18.248;2023-03-04T05:12:39;100704.25;;;3.15;100.00
38163;BME280;23977;53.078;18.248;2023-03-04T05:15:05;100710.88;;;3.32;100.00
38163;BME280;23977;53.078;18.248;2023-03-04T05:17:31;100699.81;;;3.16;100.00
38163;BME280;23977;53.078;18.248;2023-03-04T05:19:56;100691.94;;;3.16;100.00
38163;BME280;23977;53.078;18.248;2023-03-04T05:22:22;100690.91;;;3.30;100.00
38163;BME280;23977;53.078;18.248;2023-03-04T05:24:48;100703.47;;;3.38;100.00
38163;BME280;23977;53.078;18.248;2023-03-04T05:27:13;100665.34;;;2.96;100.00
38163;BME280;23977;53.078;18.248;2023-03-04T05:29:39;100700.56;;;3.29;100.00
38163;BME280;23977;53.078;18.248;2023-03-04T05:32:04;100710.44;;;3.39;100.00
38163;BME280;23977;53.078;18.248;2023-03-04T05:34:30;100705.38;;;3.36;100.00
38163;BME280;23977;53.078;18.248;2023-03-04T05:36:56;100656.25;;;3.01;100.00
38163;BME280;23977;53.078;18.248;2023-03-04T05:39:22;100709.72;;;3.37;100.00
38163;BME280;23977;53.078;18.248;2023-03-04T05:41:47;100660.47;;;3.03;100.00
38163;BME280;23977;53.078;18.248;2023-03-04T05:44:13;100684.50;;;3.10;100.00
38163;BME280;23977;53.078;18.248;2023-03-04T05:46:38;100683.84;;;3.30;100.00
38163;BME280;23977;53.078;18.248;2023-03-04T05:49:04;100711.78;;;3.56;100.00
38163;BME280;23977;53.078;18.248;2023-03-04T05:51:30;100719.56;;;3.57;100.00
38163;BME280;23977;53.078;18.248;2023-03-04T05:53:55;100723.13;;;3.56;100.00
38163;BME280;23977;53.078;18.248;2023-03-04T05:56:21;100723.50;;;3.51;100.00
38163;BME280;23977;53.078;18.248;2023-03-04T05:58:47;100719.78;;;3.54;100.00
38163;BME280;23977;53.078;18.248;2023-03-04T06:01:13;100689.75;;;3.45;100.00
38163;BME280;23977;53.078;18.248;2023-03-04T06:03:39;100711.03;;;3.42;100.00
38163;BME280;23977;53.078;18.248;2023-03-04T06:06:05;100701.25;;;3.56;100.00
38163;BME280;23977;53.078;18.248;2023-03-04T06:08:31;100602.38;;;2.95;100.00
38163;BME280;23977;53.078;18.248;2023-03-04T06:10:57;100705.06;;;3.40;100.00
38163;BME280;23977;53.078;18.248;2023-03-04T06:13:24;100669.94;;;3.17;100.00
38163;BME280;23977;53.078;18.248;2023-03-04T06:15:55;100711.19;;;3.52;100.00
38163;BME280;23977;53.078;18.248;2023-03-04T06:18:22;100696.81;;;3.45;100.00
38163;BME280;23977;53.078;18.248;2023-03-04T06:20:48;100709.75;;;3.59;100.00
38163;BME280;23977;53.078;18.248;2023-03-04T06:23:14;100705.84;;;3.65;100.00
38163;BME280;23977;53.078;18.248;2023-03-04T06:25:39;100705.25;;;3.73;100.00
38163;BME280;23977;53.078;18.248;2023-03-04T06:28:05;100706.22;;;3.72;100.00
38163;BME280;23977;53.078;18.248;2023-03-04T06:30:31;100702.38;;;3.76;100.00
38163;BME280;23977;53.078;18.248;2023-03-04T06:32:56;100704.78;;;3.79;100.00
38163;BME280;23977;53.078;18.248;2023-03-04T06:35:22;100702.25;;;3.77;100.00
38163;BME280;23977;53.078;18.248;2023-03-04T06:37:48;100682.97;;;3.65;100.00
38163;BME280;23977;53.078;18.248;2023-03-04T06:40:13;100663.72;;;3.65;100.00
38163;BME280;23977;53.078;18.248;2023-03-04T06:42:39;100707.19;;;3.93;100.00
38163;BME280;23977;53.078;18.248;2023-03-04T06:45:06;100700.47;;;3.89;100.00
38163;BME280;23977;53.078;18.248;2023-03-04T06:47:32;100705.03;;;3.87;100.00
38163;BME280;23977;53.078;18.248;2023-03-04T06:49:58;100656.19;;;3.60;100.00
38163;BME280;23977;53.078;18.248;2023-03-04T06:52:24;100706.22;;;3.94;100.00
38163;BME280;23977;53.078;18.248;2023-03-04T06:54:49;100695.81;;;3.93;100.00
38163;BME280;23977;53.078;18.248;2023-03-04T06:57:15;100702.88;;;3.92;100.00
38163;BME280;23977;53.078;18.248;2023-03-04T06:59:41;100662.66;;;3.67;100.00
38163;BME280;23977;53.078;18.248;2023-03-04T07:02:12;100688.53;;;3.85;100.00
38163;BME280;23977;53.078;18.248;2023-03-04T07:04:39;100701.91;;;4.04;100.00
38163;BME280;23977;53.078;18.248;2023-03-04T07:07:05;100673.41;;;3.76;100.00
38163;BME280;23977;53.078;18.248;2023-03-04T07:09:31;100700.50;;;4.00;100.00
38163;BME280;23977;53.078;18.248;2023-03-04T07:11:57;100706.94;;;4.07;100.00
38163;BME280;23977;53.078;18.248;2023-03-04T07:14:23;100686.03;;;3.95;100.00
38163;BME280;23977;53.078;18.248;2023-03-04T07:16:48;100705.03;;;4.10;100.00
38163;BME280;23977;53.078;18.248;2023-03-04T07:19:14;100688.88;;;4.03;100.00
38163;BME280;23977;53.078;18.248;2023-03-04T07:21:40;100688.03;;;4.14;100.00
38163;BME280;23977;53.078;18.248;2023-03-04T07:24:06;100683.47;;;4.04;100.00
38163;BME280;23977;53.078;18.248;2023-03-04T07:26:32;100651.56;;;3.86;100.00
38163;BME280;23977;53.078;18.248;2023-03-04T07:28:57;100678.13;;;3.95;100.00
38163;BME280;23977;53.078;18.248;2023-03-04T07:31:29;100671.78;;;4.08;100.00
38163;BME280;23977;53.078;18.248;2023-03-04T07:33:57;100695.34;;;4.21;100.00
38163;BME280;23977;53.078;18.248;2023-03-04T07:36:26;100695.72;;;4.17;100.00
38163;BME280;23977;53.078;18.248;2023-03-04T07:38:52;100688.75;;;4.16;100.00
38163;BME280;23977;53.078;18.248;2023-03-04T07:41:20;100656.78;;;3.98;100.00
38163;BME280;23977;53.078;18.248;2023-03-04T07:43:47;100684.66;;;4.23;100.00
38163;BME280;23977;53.078;18.248;2023-03-04T07:46:13;100644.84;;;4.05;100.00
38163;BME280;23977;53.078;18.248;2023-03-04T07:48:39;100662.88;;;4.32;100.00
38163;BME280;23977;53.078;18.248;2023-03-04T07:51:16;100665.41;;;4.22;100.00
38163;BME280;23977;53.078;18.248;2023-03-04T07:53:44;100668.63;;;4.26;100.00
38163;BME280;23977;53.078;18.248;2023-03-04T07:56:17;100669.38;;;4.17;100.00
38163;BME280;23977;53.078;18.248;2023-03-04T07:58:43;100662.41;;;4.16;100.00
38163;BME280;23977;53.078;18.248;2023-03-04T08:01:14;100655.94;;;4.31;100.00
38163;BME280;23977;53.078;18.248;2023-03-04T08:03:40;100636.19;;;4.25;100.00
38163;BME280;23977;53.078;18.248;2023-03-04T08:06:07;100665.25;;;4.47;100.00
38163;BME280;23977;53.078;18.248;2023-03-04T08:08:34;100660.47;;;4.40;100.00
38163;BME280;23977;53.078;18.248;2023-03-04T08:11:03;100654.63;;;4.37;100.00
38163;BME280;23977;53.078;18.248;2023-03-04T08:13:29;100616.19;;;4.23;100.00
38163;BME280;23977;53.078;18.248;2023-03-04T08:15:55;100644.78;;;4.39;100.00
38163;BME280;23977;53.078;18.248;2023-03-04T08:18:20;100622.56;;;4.20;100.00
38163;BME280;23977;53.078;18.248;2023-03-04T08:20:46;100604.00;;;4.22;100.00
38163;BME280;23977;53.078;18.248;2023-03-04T08:23:12;100658.88;;;4.60;100.00
38163;BME280;23977;53.078;18.248;2023-03-04T08:25:40;100652.53;;;4.63;100.00
38163;BME280;23977;53.078;18.248;2023-03-04T08:28:07;100618.06;;;4.43;100.00
38163;BME280;23977;53.078;18.248;2023-03-04T08:30:33;100648.44;;;4.70;100.00
38163;BME280;23977;53.078;18.248;2023-03-04T08:33:00;100636.97;;;4.60;100.00
38163;BME280;23977;53.078;18.248;2023-03-04T08:35:26;100643.34;;;4.90;100.00
38163;BME280;23977;53.078;18.248;2023-03-04T08:37:52;100624.13;;;4.88;100.00
38163;BME280;23977;53.078;18.248;2023-03-04T08:40:17;100634.75;;;4.76;100.00
38163;BME280;23977;53.078;18.248;2023-03-04T08:42:43;100617.75;;;4.69;100.00
38163;BME280;23977;53.078;18.248;2023-03-04T08:45:09;100635.16;;;4.93;100.00
38163;BME280;23977;53.078;18.248;2023-03-04T08:47:35;100603.66;;;4.59;100.00
38163;BME280;23977;53.078;18.248;2023-03-04T08:50:03;100600.28;;;4.68;100.00
38163;BME280;23977;53.078;18.248;2023-03-04T08:52:29;100612.66;;;4.89;100.00
38163;BME280;23977;53.078;18.248;2023-03-04T08:54:55;100624.34;;;4.96;100.00
38163;BME280;23977;53.078;18.248;2023-03-04T08:57:21;100633.25;;;5.16;100.00
38163;BME280;23977;53.078;18.248;2023-03-04T08:59:47;100567.38;;;4.84;100.00
38163;BME280;23977;53.078;18.248;2023-03-04T09:02:12;100628.41;;;5.21;100.00
38163;BME280;23977;53.078;18.248;2023-03-04T09:04:38;100626.88;;;4.97;100.00
38163;BME280;23977;53.078;18.248;2023-03-04T09:07:04;100624.03;;;5.10;100.00
38163;BME280;23977;53.078;18.248;2023-03-04T09:09:30;100646.09;;;5.09;100.00
38163;BME280;23977;53.078;18.248;2023-03-04T09:11:56;100629.03;;;4.92;100.00
38163;BME280;23977;53.078;18.248;2023-03-04T09:14:22;100653.56;;;5.04;100.00
38163;BME280;23977;53.078;18.248;2023-03-04T09:16:47;100656.25;;;4.93;100.00
38163;BME280;23977;53.078;18.248;2023-03-04T09:19:13;100635.91;;;4.84;100.00
38163;BME280;23977;53.078;18.248;2023-03-04T09:21:39;100617.78;;;4.58;100.00
38163;BME280;23977;53.078;18.248;2023-03-04T09:24:04;100623.88;;;4.70;100.00
38163;BME280;23977;53.078;18.248;2023-03-04T09:26:30;100655.16;;;4.95;100.00
38163;BME280;23977;53.078;18.248;2023-03-04T09:28:58;100654.38;;;4.84;100.00
38163;BME280;23977;53.078;18.248;2023-03-04T09:31:24;100667.06;;;4.90;100.00
38163;BME280;23977;53.078;18.248;2023-03-04T09:33:51;100665.53;;;4.76;100.00
38163;BME280;23977;53.078;18.248;2023-03-04T09:36:17;100660.09;;;4.89;100.00
38163;BME280;23977;53.078;18.248;2023-03-04T09:38:43;100644.53;;;4.86;100.00
38163;BME280;23977;53.078;18.248;2023-03-04T09:41:16;100625.00;;;5.09;100.00
38163;BME280;23977;53.078;18.248;2023-03-04T09:43:44;100644.44;;;5.50;100.00
38163;BME280;23977;53.078;18.248;2023-03-04T09:46:13;100653.00;;;5.64;100.00
38163;BME280;23977;53.078;18.248;2023-03-04T09:48:51;100653.94;;;5.63;100.00
38163;BME280;23977;53.078;18.248;2023-03-04T09:56:34;100653.19;;;5.72;100.00
38163;BME280;23977;53.078;18.248;2023-03-04T10:07:00;100636.69;;;5.89;100.00
38163;BME280;23977;53.078;18.248;2023-03-04T10:09:46;100650.03;;;6.09;100.00
38163;BME280;23977;53.078;18.248;2023-03-04T10:12:18;100610.16;;;5.91;100.00
38163;BME280;23977;53.078;18.248;2023-03-04T10:14:49;100618.91;;;6.22;100.00
38163;BME280;23977;53.078;18.248;2023-03-04T10:17:32;100625.06;;;6.33;100.00
38163;BME280;23977;53.078;18.248;2023-03-04T10:20:18;100638.50;;;6.10;100.00
38163;BME280;23977;53.078;18.248;2023-03-04T10:22:58;100645.06;;;6.25;99.77
38163;BME280;23977;53.078;18.248;2023-03-04T10:25:31;100627.84;;;6.41;98.99
38163;BME280;23977;53.078;18.248;2023-03-04T10:28:00;100641.00;;;6.72;96.74
38163;BME280;23977;53.078;18.248;2023-03-04T10:33:24;100549.28;;;7.39;90.59
38163;BME280;23977;53.078;18.248;2023-03-04T10:36:00;100604.13;;;8.22;84.89
38163;BME280;23977;53.078;18.248;2023-03-04T10:38:29;100643.53;;;8.34;80.59
38163;BME280;23977;53.078;18.248;2023-03-04T10:40:57;100600.34;;;8.42;81.79
38163;BME280;23977;53.078;18.248;2023-03-04T10:43:22;100625.56;;;8.92;77.76
38163;BME280;23977;53.078;18.248;2023-03-04T10:45:53;100645.00;;;9.37;75.16
38163;BME280;23977;53.078;18.248;2023-03-04T10:48:25;100649.03;;;9.41;74.86
38163;BME280;23977;53.078;18.248;2023-03-04T10:50:51;100623.06;;;8.91;75.36
38163;BME280;23977;53.078;18.248;2023-03-04T10:53:28;100645.28;;;8.89;78.61
38163;BME280;23977;53.078;18.248;2023-03-04T10:55:54;100602.47;;;9.11;75.02
38163;BME280;23977;53.078;18.248;2023-03-04T10:58:20;100641.19;;;9.92;73.61
38163;BME280;23977;53.078;18.248;2023-03-04T11:01:04;100640.75;;;10.47;70.63
38163;BME280;23977;53.078;18.248;2023-03-04T11:03:33;100649.50;;;10.31;69.02
38163;BME280;23977;53.078;18.248;2023-03-04T11:06:05;100648.22;;;10.44;68.93
38163;BME280;23977;53.078;18.248;2023-03-04T11:08:31;100646.75;;;10.41;68.14
38163;BME280;23977;53.078;18.248;2023-03-04T11:10:57;100619.44;;;9.96;68.89
38163;BME280;23977;53.078;18.248;2023-03-04T11:13:24;100635.56;;;9.69;67.54
38163;BME280;23977;53.078;18.248;2023-03-04T11:15:59;100660.34;;;10.04;66.98
38163;BME280;23977;53.078;18.248;2023-03-04T11:18:34;100665.25;;;9.64;58.39
38163;BME280;23977;53.078;18.248;2023-03-04T11:21:06;100628.56;;;9.15;56.10
38163;BME280;23977;53.078;18.248;2023-03-04T11:23:38;100671.44;;;9.20;49.89
38163;BME280;23977;53.078;18.248;2023-03-04T11:26:20;100637.00;;;9.11;48.94
38163;BME280;23977;53.078;18.248;2023-03-04T11:28:55;100676.88;;;9.19;46.05
38163;BME280;23977;53.078;18.248;2023-03-04T11:31:32;100674.81;;;9.31;46.31
38163;BME280;23977;53.078;18.248;2023-03-04T11:34:03;100674.66;;;9.06;46.48
38163;BME280;23977;53.078;18.248;2023-03-04T11:39:17;100634.03;;;8.96;46.13
38163;BME280;23977;53.078;18.248;2023-03-04T11:41:57;100651.06;;;9.03;45.86
38163;BME280;23977;53.078;18.248;2023-03-04T11:44:23;100660.50;;;9.05;43.50
38163;BME280;23977;53.078;18.248;2023-03-04T11:55:05;100672.47;;;8.28;43.44
38163;BME280;23977;53.078;18.248;2023-03-04T12:00:33;100668.84;;;8.19;44.11
38163;BME280;23977;53.078;18.248;2023-03-04T12:06:13;100669.09;;;8.81;43.76
38163;BME280;23977;53.078;18.248;2023-03-04T12:11:29;100678.94;;;8.89;43.25
38163;BME280;23977;53.078;18.248;2023-03-04T12:19:15;100654.03;;;7.61;44.10
38163;BME280;23977;53.078;18.248;2023-03-04T12:30:04;100693.31;;;7.66;44.02
38163;BME280;23977;53.078;18.248;2023-03-04T12:32:39;100684.50;;;7.85;43.18
38163;BME280;23977;53.078;18.248;2023-03-04T12:35:32;100648.66;;;7.81;43.30
38163;BME280;23977;53.078;18.248;2023-03-04T12:40:49;100693.75;;;7.61;43.06
38163;BME280;23977;53.078;18.248;2023-03-04T12:43:34;100691.94;;;7.52;43.72
38163;BME280;23977;53.078;18.248;2023-03-04T12:46:37;100704.22;;;7.43;41.72
38163;BME280;23977;53.078;18.248;2023-03-04T12:49:29;100713.13;;;7.22;41.01
38163;BME280;23977;53.078;18.248;2023-03-04T12:52:11;100710.06;;;7.27;41.13
38163;BME280;23977;53.078;18.248;2023-03-04T12:54:44;100679.28;;;7.36;40.37
38163;BME280;23977;53.078;18.248;2023-03-04T12:57:18;100714.50;;;7.56;39.67
38163;BME280;23977;53.078;18.248;2023-03-04T13:06:25;100717.09;;;6.58;36.39
38163;BME280;23977;53.078;18.248;2023-03-04T13:09:02;100720.28;;;6.52;35.85
38163;BME280;23977;53.078;18.248;2023-03-04T13:11:39;100717.69;;;6.31;35.88
38163;BME280;23977;53.078;18.248;2023-03-04T13:16:52;100712.56;;;5.99;36.75
38163;BME280;23977;53.078;18.248;2023-03-04T13:24:53;100716.41;;;5.52;37.72
38163;BME280;23977;53.078;18.248;2023-03-04T13:27:45;100711.25;;;5.30;37.37
38163;BME280;23977;53.078;18.248;2023-03-04T13:48:56;100709.31;;;4.99;38.55
38163;BME280;23977;53.078;18.248;2023-03-04T13:56:36;100697.69;;;5.02;38.54
38163;BME280;23977;53.078;18.248;2023-03-04T14:04:30;100714.44;;;5.12;39.89
38163;BME280;23977;53.078;18.248;2023-03-04T14:07:00;100705.13;;;5.08;39.91
38163;BME280;23977;53.078;18.248;2023-03-04T14:09:31;100656.47;;;4.69;39.96
38163;BME280;23977;53.078;18.248;2023-03-04T14:12:00;100709.75;;;5.16;38.95
38163;BME280;23977;53.078;18.248;2023-03-04T14:14:55;100687.16;;;5.02;39.71
38163;BME280;23977;53.078;18.248;2023-03-04T14:17:34;100670.63;;;5.00;39.70
38163;BME280;23977;53.078;18.248;2023-03-04T14:20:22;100687.47;;;5.09;39.28
38163;BME280;23977;53.078;18.248;2023-03-04T14:22:49;100681.25;;;5.31;39.75
38163;BME280;23977;53.078;18.248;2023-03-04T14:27:44;100722.88;;;5.60;39.19
38163;BME280;23977;53.078;18.248;2023-03-04T14:30:23;100722.59;;;5.63;39.34